Hlavní strana
METAR-TAF:

METAR-TAF

Letiště :

Foz do Iguaçu, Paraná, Brazílie

zeměpisná šířka: 25-31S, zeměpisná délka: 054-35W, výška: 180 m

Aktuální stav počasí

Zpráva byla vytvořena před 1 hodinou a 3 minutami, v 11:00 UTC
Východní vítr 6 kt
Teplota 27°C
Vlhkost vzduchu 62%
Tlak 1015 hPa
Viditelnost 10 km a více
Žádná oblačnost pod 1500 m, nevyskytují se cumulonimby.

METAR: SBFI 121100Z 09006KT CAVOK 27/19 Q1015

Čas: 10:03 (12:03 UTC)

Předpověď počasí

Zpráva byla vytvořena před 3 hodinami a 18 minutami, v 08:45 UTC
Předpověď platná od 12 v 12 UTC do 13 v 12 UTC
Východní vítr 6 kt
Viditelnost 10 km a více
Žádná oblačnost pod 1500 m, nevyskytují se cumulonimby.
Změna
od 12 v 12 UTC do 12 v 14 UTC
Severoseverovýchodní vítr 7 kt
Změna
od 12 v 22 UTC do 12 v 24 UTC
Východní vítr 5 kt

TAF: SBFI 120845Z 1212/1312 10006KT CAVOK TX38/1218Z TN22/1308Z BECMG 1212/1214 02007KT BECMG 1222/1224 09005KT RMK PEB

Stav a předpovědi počasí z více než 4 000 letišť (zprávy METAR a TAF).

Červené a žluté tečky na mapě představují dostupné meteorologické stanice.

Když kurzor umístíte na tečku, zobrazí se název stanice.

Pak kliknutím zobrazíte stav a předpověď počasí.

Chcete-li změnit mapu, kliknutím na zelené tlačítko se znaménkem +mapu přiblížíte, kliknutím na zelené tlačítko se znaménkem – mapu oddálíte a kliknutím na zelené šipky přejdete na sousední mapy.


METAR-TAF: